createdAt,value
2023-04-25T00:00:57.664Z,4.22
2023-04-25T00:06:10.264Z,3.00
2023-04-25T00:11:39.397Z,3.08
2023-04-25T00:16:57.787Z,3.45
2023-04-25T00:22:09.238Z,3.50
2023-04-25T00:27:52.504Z,3.70
2023-04-25T00:33:30.412Z,3.17
2023-04-25T00:38:39.747Z,3.47
2023-04-25T00:50:08.076Z,3.47
2023-04-25T00:55:29.836Z,3.20
2023-04-25T01:01:20.370Z,3.30
2023-04-25T01:06:31.898Z,3.10
2023-04-25T01:17:44.247Z,3.10
2023-04-25T01:23:42.086Z,3.00
2023-04-25T01:29:07.384Z,3.58
2023-04-25T01:34:33.924Z,3.05
2023-04-25T01:39:46.224Z,3.05
2023-04-25T01:45:16.809Z,2.47
2023-04-25T01:50:42.820Z,2.88
2023-04-25T01:55:54.729Z,2.60
2023-04-25T02:01:26.425Z,3.03
2023-04-25T02:06:40.140Z,2.80
2023-04-25T02:12:01.370Z,2.90
2023-04-25T02:17:25.121Z,2.38
2023-04-25T02:22:31.241Z,2.30
2023-04-25T02:33:25.572Z,2.40
2023-04-25T02:44:03.449Z,2.88
2023-04-25T02:49:31.835Z,2.72
2023-04-25T02:55:28.272Z,2.40
2023-04-25T03:07:07.315Z,2.40
2023-04-25T03:12:35.247Z,2.15
2023-04-25T03:18:05.746Z,1.98
2023-04-25T03:29:17.336Z,2.30
2023-04-25T03:34:37.970Z,2.35
2023-04-25T03:40:04.914Z,2.38
2023-04-25T03:45:18.926Z,1.90
2023-04-25T03:50:30.530Z,2.03
2023-04-25T03:55:43.564Z,2.00
2023-04-25T04:00:53.871Z,2.38
2023-04-25T04:11:39.312Z,2.50
2023-04-25T04:16:52.573Z,1.80
2023-04-25T04:21:57.823Z,1.88
2023-04-25T04:33:01.206Z,2.20
2023-04-25T04:38:12.510Z,1.92
2023-04-25T04:43:26.741Z,1.88
2023-04-25T04:48:53.791Z,1.98
2023-04-25T04:54:39.663Z,2.00
2023-04-25T05:24:02.702Z,1.77
2023-04-25T05:35:12.603Z,1.55
2023-04-25T05:41:13.324Z,1.83
2023-04-25T05:53:07.554Z,1.63
2023-04-25T05:58:36.657Z,1.75
2023-04-25T06:06:30.755Z,1.05
2023-04-25T06:33:10.156Z,1.52
2023-04-25T06:38:12.380Z,3.00
2023-04-25T06:43:15.946Z,2.15
2023-04-25T06:48:18.085Z,1.75
2023-04-25T06:53:20.419Z,1.58
2023-04-25T06:58:24.050Z,1.45
2023-04-25T07:03:26.374Z,3.33
2023-04-25T07:08:30.161Z,1.48
2023-04-25T07:13:33.792Z,1.65
2023-04-25T07:18:36.206Z,1.80
2023-04-25T07:23:38.354Z,1.55
2023-04-25T07:28:41.951Z,1.40
2023-04-25T07:33:44.239Z,1.23
2023-04-25T07:38:46.436Z,1.20
2023-04-25T07:43:50.578Z,1.10
2023-04-25T07:48:53.196Z,1.20
2023-04-25T07:53:56.006Z,1.08
2023-04-25T07:58:59.733Z,1.00
2023-04-25T08:04:02.158Z,1.35
2023-04-25T08:09:04.700Z,1.23
2023-04-25T08:14:08.456Z,2.80
2023-04-25T08:19:11.043Z,1.50
2023-04-25T08:24:13.164Z,1.70
2023-04-25T08:29:16.812Z,1.50
2023-04-25T08:34:19.043Z,1.00
2023-04-25T08:39:21.289Z,0.90
2023-04-25T08:44:25.878Z,1.23
2023-04-25T08:49:28.397Z,1.27
2023-04-25T08:54:35.393Z,1.52
2023-04-25T08:59:41.820Z,0.93
2023-04-25T09:04:44.974Z,0.80
2023-04-25T09:09:47.248Z,0.80
2023-04-25T09:15:06.438Z,1.17
2023-04-25T09:20:10.505Z,1.30
2023-04-25T09:25:13.815Z,1.10
2023-04-25T09:30:18.462Z,1.25
2023-04-25T09:35:26.330Z,2.08
2023-04-25T09:40:28.585Z,1.65
2023-04-25T09:45:32.498Z,1.23
2023-04-25T09:50:34.838Z,1.10
2023-04-25T09:55:37.361Z,0.90
2023-04-25T10:00:42.384Z,1.13
2023-04-25T10:05:45.609Z,1.58
2023-04-25T10:10:49.660Z,0.98
2023-04-25T10:15:54.662Z,1.25
2023-04-25T10:20:58.836Z,1.17
2023-04-25T10:26:01.537Z,1.92
2023-04-25T10:31:09.167Z,1.30
2023-04-25T10:36:13.786Z,2.28
2023-04-25T10:41:16.001Z,2.22
2023-04-25T10:46:23.395Z,0.90
2023-04-25T10:51:27.697Z,0.75
2023-04-25T10:56:32.062Z,1.17
2023-04-25T11:01:40.167Z,1.17
2023-04-25T11:06:58.271Z,1.33
2023-04-25T11:12:10.491Z,1.00
2023-04-25T11:17:14.015Z,1.02
2023-04-25T11:22:16.330Z,1.15
2023-04-25T11:27:18.723Z,0.85
2023-04-25T11:32:22.963Z,0.98
2023-04-25T11:37:26.159Z,1.50
2023-04-25T11:42:28.472Z,1.30
2023-04-25T11:47:33.464Z,0.80
2023-04-25T11:52:39.499Z,0.90
2023-04-25T11:57:42.613Z,1.00
2023-04-25T12:02:47.723Z,1.10
2023-04-25T12:07:50.137Z,1.00
2023-04-25T12:12:52.527Z,0.90
2023-04-25T12:17:56.365Z,1.00
2023-04-25T12:22:58.959Z,1.25
2023-04-25T12:28:14.316Z,1.05
2023-04-25T12:33:18.710Z,1.20
2023-04-25T12:38:25.583Z,1.40
2023-04-25T12:43:27.950Z,1.13
2023-04-25T12:48:31.637Z,0.90
2023-04-25T12:53:35.549Z,1.20
2023-04-25T12:58:38.122Z,1.58
2023-04-25T13:03:42.632Z,2.30
2023-04-25T13:08:45.306Z,1.60
2023-04-25T13:13:47.501Z,1.60
2023-04-25T13:18:51.137Z,1.75
2023-04-25T13:23:53.941Z,2.25
2023-04-25T13:28:56.900Z,1.15
2023-04-25T13:34:00.581Z,1.65
2023-04-25T13:39:02.999Z,1.40
2023-04-25T13:44:05.473Z,1.20
2023-04-25T13:49:12.651Z,2.33
2023-04-25T13:54:15.536Z,1.88
2023-04-25T13:59:17.851Z,1.30
2023-04-25T14:04:21.702Z,1.27
2023-04-25T14:09:24.039Z,0.98
2023-04-25T14:14:26.310Z,1.20
2023-04-25T14:19:30.414Z,1.05
2023-04-25T14:24:32.675Z,1.05
2023-04-25T14:29:35.265Z,1.20
2023-04-25T14:34:38.919Z,0.68
2023-04-25T14:39:41.092Z,1.30
2023-04-25T14:44:43.423Z,1.27
2023-04-25T14:49:47.184Z,0.98
2023-04-25T14:54:49.299Z,0.80
2023-04-25T14:59:51.693Z,1.00
2023-04-25T15:04:55.473Z,0.90
2023-04-25T15:09:57.782Z,1.60
2023-04-25T15:14:59.952Z,1.35
2023-04-25T15:20:07.361Z,1.20
2023-04-25T15:25:11.089Z,1.10
2023-04-25T15:30:15.010Z,1.30
2023-04-25T15:35:18.637Z,1.30
2023-04-25T15:40:21.075Z,1.15
2023-04-25T15:45:25.306Z,1.27
2023-04-25T15:50:28.882Z,1.13
2023-04-25T15:55:31.170Z,1.42
2023-04-25T16:00:33.323Z,1.20
2023-04-25T16:05:37.335Z,1.10
2023-04-25T16:10:39.545Z,1.27
2023-04-25T16:15:41.730Z,1.75
2023-04-25T16:20:45.412Z,1.40
2023-04-25T16:25:47.692Z,1.40
2023-04-25T16:30:49.961Z,1.40
2023-04-25T16:35:53.515Z,1.95
2023-04-25T16:40:56.063Z,1.15
2023-04-25T16:45:58.382Z,1.38
2023-04-25T16:51:01.925Z,1.25
2023-04-25T16:56:04.270Z,1.40
2023-04-25T17:01:06.515Z,1.00
2023-04-25T17:06:10.695Z,1.00
2023-04-25T17:11:12.886Z,1.00
2023-04-25T17:16:15.133Z,1.35
2023-04-25T17:21:18.878Z,1.02
2023-04-25T17:26:21.077Z,1.23
2023-04-25T17:31:23.404Z,1.45
2023-04-25T17:36:27.247Z,1.65
2023-04-25T17:41:29.385Z,2.00
2023-04-25T17:46:31.556Z,2.25
2023-04-25T17:51:35.136Z,2.10
2023-04-25T17:56:37.546Z,3.70
2023-04-25T18:01:42.172Z,1.90
2023-04-25T18:06:47.380Z,1.80
2023-04-25T18:11:51.292Z,1.40
2023-04-25T18:16:54.248Z,2.00
2023-04-25T18:21:57.787Z,1.70
2023-04-25T18:27:00.728Z,1.60
2023-04-25T18:32:02.959Z,2.00
2023-04-25T18:37:06.569Z,1.38
2023-04-25T18:42:08.808Z,2.08
2023-04-25T18:47:11.050Z,1.67
2023-04-25T18:52:14.626Z,2.00
2023-04-25T18:57:16.845Z,1.48
2023-04-25T19:02:19.112Z,1.48
2023-04-25T19:07:22.944Z,2.13
2023-04-25T19:12:25.499Z,2.00
2023-04-25T19:17:30.135Z,1.70
2023-04-25T19:22:34.313Z,1.60
2023-04-25T19:27:36.514Z,1.60
2023-04-25T19:32:39.361Z,1.75
2023-04-25T19:37:43.213Z,1.83
2023-04-25T19:42:45.698Z,2.30
2023-04-25T19:47:47.942Z,2.03
2023-04-25T19:52:52.313Z,1.83
2023-04-25T19:57:54.513Z,2.30
2023-04-25T20:02:56.760Z,2.65
2023-04-25T20:08:00.434Z,2.20
2023-04-25T20:13:02.996Z,2.13
2023-04-25T20:18:05.228Z,2.75
2023-04-25T20:23:08.889Z,2.15
2023-04-25T20:28:11.125Z,2.30
2023-04-25T20:33:13.365Z,2.10
2023-04-25T20:38:16.944Z,2.17
2023-04-25T20:43:19.075Z,2.40
2023-04-25T20:48:21.462Z,3.00
2023-04-25T20:53:25.091Z,2.65
2023-04-25T20:58:27.296Z,2.60
2023-04-25T21:03:29.755Z,2.42
2023-04-25T21:08:33.396Z,2.97
2023-04-25T21:13:35.723Z,2.25
2023-04-25T21:18:37.892Z,1.58
2023-04-25T21:23:42.531Z,1.67
2023-04-25T21:28:44.659Z,1.40
2023-04-25T21:33:46.768Z,1.50
2023-04-25T21:38:50.465Z,1.20
2023-04-25T21:43:52.872Z,1.52
2023-04-25T21:48:55.322Z,1.23
2023-04-25T21:53:59.471Z,1.15
2023-04-25T21:59:01.593Z,1.60
2023-04-25T22:04:04.027Z,1.75
2023-04-25T22:09:07.881Z,1.77
2023-04-25T22:14:10.265Z,1.60
2023-04-25T22:19:12.376Z,1.60
2023-04-25T22:24:16.051Z,1.67
2023-04-25T22:29:18.311Z,1.58
2023-04-25T22:34:20.866Z,1.85
2023-04-25T22:39:24.518Z,1.70
2023-04-25T22:44:26.670Z,1.80
2023-04-25T22:49:28.867Z,1.88
2023-04-25T22:54:32.447Z,2.03
2023-04-25T22:59:34.636Z,1.80
2023-04-25T23:04:36.898Z,1.67
2023-04-25T23:09:40.606Z,2.20
2023-04-25T23:14:42.780Z,1.58
2023-04-25T23:19:44.939Z,1.42
2023-04-25T23:24:48.510Z,1.38
2023-04-25T23:29:53.654Z,1.70
2023-04-25T23:34:55.760Z,1.63
2023-04-25T23:39:59.377Z,1.70
2023-04-25T23:45:01.569Z,1.50
2023-04-25T23:50:04.230Z,1.83
2023-04-25T23:55:08.473Z,1.90
